sensor_id;sensor_type;location;lat;lon;timestamp;P1;durP1;ratioP1;P2;durP2;ratioP2
8636;SDS011;4356;49.068;8.658;2022-07-21T00:01:48;8.57;;;7.90;;
8636;SDS011;4356;49.068;8.658;2022-07-21T00:04:15;8.65;;;7.82;;
8636;SDS011;4356;49.068;8.658;2022-07-21T00:06:41;8.85;;;8.05;;
8636;SDS011;4356;49.068;8.658;2022-07-21T00:09:07;9.40;;;8.52;;
8636;SDS011;4356;49.068;8.658;2022-07-21T00:11:33;9.65;;;8.85;;
8636;SDS011;4356;49.068;8.658;2022-07-21T00:13:58;9.60;;;8.80;;
8636;SDS011;4356;49.068;8.658;2022-07-21T00:16:24;8.98;;;8.13;;
8636;SDS011;4356;49.068;8.658;2022-07-21T00:18:49;7.95;;;7.25;;
8636;SDS011;4356;49.068;8.658;2022-07-21T00:21:15;8.40;;;7.70;;
8636;SDS011;4356;49.068;8.658;2022-07-21T00:23:40;8.20;;;7.57;;
8636;SDS011;4356;49.068;8.658;2022-07-21T00:26:06;8.23;;;7.60;;
8636;SDS011;4356;49.068;8.658;2022-07-21T00:28:31;8.27;;;7.70;;
8636;SDS011;4356;49.068;8.658;2022-07-21T00:30:56;7.53;;;6.93;;
8636;SDS011;4356;49.068;8.658;2022-07-21T00:33:22;8.57;;;7.55;;
8636;SDS011;4356;49.068;8.658;2022-07-21T00:35:47;8.13;;;7.43;;
8636;SDS011;4356;49.068;8.658;2022-07-21T00:38:13;7.93;;;7.20;;
8636;SDS011;4356;49.068;8.658;2022-07-21T00:40:39;7.82;;;7.28;;
8636;SDS011;4356;49.068;8.658;2022-07-21T00:43:04;7.35;;;6.80;;
8636;SDS011;4356;49.068;8.658;2022-07-21T00:45:30;7.70;;;7.10;;
8636;SDS011;4356;49.068;8.658;2022-07-21T00:47:55;7.60;;;6.82;;
8636;SDS011;4356;49.068;8.658;2022-07-21T00:50:21;7.32;;;6.63;;
8636;SDS011;4356;49.068;8.658;2022-07-21T00:52:47;7.22;;;6.63;;
8636;SDS011;4356;49.068;8.658;2022-07-21T00:55:14;7.70;;;6.97;;
8636;SDS011;4356;49.068;8.658;2022-07-21T00:57:42;7.45;;;6.85;;
8636;SDS011;4356;49.068;8.658;2022-07-21T01:00:10;7.13;;;6.55;;
8636;SDS011;4356;49.068;8.658;2022-07-21T01:02:38;7.28;;;6.68;;
8636;SDS011;4356;49.068;8.658;2022-07-21T01:05:04;7.32;;;6.72;;
8636;SDS011;4356;49.068;8.658;2022-07-21T01:07:31;7.45;;;6.95;;
8636;SDS011;4356;49.068;8.658;2022-07-21T01:09:57;7.15;;;6.55;;
8636;SDS011;4356;49.068;8.658;2022-07-21T01:12:23;7.85;;;7.25;;
8636;SDS011;4356;49.068;8.658;2022-07-21T01:14:48;6.70;;;6.10;;
8636;SDS011;4356;49.068;8.658;2022-07-21T01:17:14;7.30;;;6.68;;
8636;SDS011;4356;49.068;8.658;2022-07-21T01:19:40;7.65;;;6.93;;
8636;SDS011;4356;49.068;8.658;2022-07-21T01:22:05;7.60;;;6.78;;
8636;SDS011;4356;49.068;8.658;2022-07-21T01:24:31;7.80;;;7.10;;
8636;SDS011;4356;49.068;8.658;2022-07-21T01:26:57;10.52;;;6.80;;
8636;SDS011;4356;49.068;8.658;2022-07-21T01:29:23;7.80;;;7.07;;
8636;SDS011;4356;49.068;8.658;2022-07-21T01:31:49;7.35;;;6.82;;
8636;SDS011;4356;49.068;8.658;2022-07-21T01:34:16;7.55;;;6.93;;
8636;SDS011;4356;49.068;8.658;2022-07-21T01:36:43;7.28;;;6.60;;
8636;SDS011;4356;49.068;8.658;2022-07-21T01:39:08;7.82;;;7.10;;
8636;SDS011;4356;49.068;8.658;2022-07-21T01:41:53;7.22;;;6.80;;
8636;SDS011;4356;49.068;8.658;2022-07-21T01:44:19;7.82;;;7.13;;
8636;SDS011;4356;49.068;8.658;2022-07-21T01:46:46;7.05;;;6.53;;
8636;SDS011;4356;49.068;8.658;2022-07-21T01:49:13;7.75;;;7.15;;
8636;SDS011;4356;49.068;8.658;2022-07-21T01:51:40;7.90;;;7.28;;
8636;SDS011;4356;49.068;8.658;2022-07-21T01:54:06;6.97;;;6.45;;
8636;SDS011;4356;49.068;8.658;2022-07-21T01:56:33;7.88;;;7.15;;
8636;SDS011;4356;49.068;8.658;2022-07-21T01:58:59;6.95;;;6.35;;
8636;SDS011;4356;49.068;8.658;2022-07-21T02:01:25;7.75;;;6.53;;
8636;SDS011;4356;49.068;8.658;2022-07-21T02:03:53;7.28;;;6.68;;
8636;SDS011;4356;49.068;8.658;2022-07-21T02:06:19;7.20;;;6.63;;
8636;SDS011;4356;49.068;8.658;2022-07-21T02:08:45;7.32;;;6.82;;
8636;SDS011;4356;49.068;8.658;2022-07-21T02:11:11;7.28;;;6.72;;
8636;SDS011;4356;49.068;8.658;2022-07-21T02:13:37;7.50;;;6.60;;
8636;SDS011;4356;49.068;8.658;2022-07-21T02:16:03;7.25;;;6.63;;
8636;SDS011;4356;49.068;8.658;2022-07-21T02:18:29;9.10;;;7.07;;
8636;SDS011;4356;49.068;8.658;2022-07-21T02:20:54;6.88;;;6.38;;
8636;SDS011;4356;49.068;8.658;2022-07-21T02:23:20;7.07;;;5.85;;
8636;SDS011;4356;49.068;8.658;2022-07-21T02:25:47;6.95;;;6.45;;
8636;SDS011;4356;49.068;8.658;2022-07-21T02:28:14;6.07;;;5.68;;
8636;SDS011;4356;49.068;8.658;2022-07-21T02:30:39;7.18;;;6.47;;
8636;SDS011;4356;49.068;8.658;2022-07-21T02:33:05;6.43;;;5.97;;
8636;SDS011;4356;49.068;8.658;2022-07-21T02:35:30;6.80;;;6.15;;
8636;SDS011;4356;49.068;8.658;2022-07-21T02:37:56;7.10;;;6.60;;
8636;SDS011;4356;49.068;8.658;2022-07-21T02:40:22;6.93;;;6.43;;
8636;SDS011;4356;49.068;8.658;2022-07-21T02:42:47;7.50;;;6.93;;
8636;SDS011;4356;49.068;8.658;2022-07-21T02:45:13;7.40;;;6.80;;
8636;SDS011;4356;49.068;8.658;2022-07-21T02:50:28;7.03;;;6.50;;
8636;SDS011;4356;49.068;8.658;2022-07-21T02:52:56;7.25;;;6.55;;
8636;SDS011;4356;49.068;8.658;2022-07-21T02:55:23;7.57;;;6.97;;
8636;SDS011;4356;49.068;8.658;2022-07-21T02:57:49;7.38;;;6.78;;
8636;SDS011;4356;49.068;8.658;2022-07-21T03:00:15;7.47;;;6.88;;
8636;SDS011;4356;49.068;8.658;2022-07-21T03:02:41;7.32;;;6.80;;
8636;SDS011;4356;49.068;8.658;2022-07-21T03:05:06;7.75;;;7.15;;
8636;SDS011;4356;49.068;8.658;2022-07-21T03:07:32;8.30;;;7.38;;
8636;SDS011;4356;49.068;8.658;2022-07-21T03:09:57;8.43;;;7.63;;
8636;SDS011;4356;49.068;8.658;2022-07-21T03:12:23;8.25;;;7.55;;
8636;SDS011;4356;49.068;8.658;2022-07-21T03:14:48;7.97;;;7.38;;
8636;SDS011;4356;49.068;8.658;2022-07-21T03:17:14;7.80;;;7.30;;
8636;SDS011;4356;49.068;8.658;2022-07-21T03:19:39;8.07;;;7.50;;
8636;SDS011;4356;49.068;8.658;2022-07-21T03:22:05;8.65;;;7.95;;
8636;SDS011;4356;49.068;8.658;2022-07-21T03:24:30;8.00;;;7.20;;
8636;SDS011;4356;49.068;8.658;2022-07-21T03:26:56;7.93;;;7.32;;
8636;SDS011;4356;49.068;8.658;2022-07-21T03:29:22;7.40;;;6.85;;
8636;SDS011;4356;49.068;8.658;2022-07-21T03:31:47;7.85;;;7.15;;
8636;SDS011;4356;49.068;8.658;2022-07-21T03:34:12;8.00;;;7.40;;
8636;SDS011;4356;49.068;8.658;2022-07-21T03:36:38;8.15;;;7.38;;
8636;SDS011;4356;49.068;8.658;2022-07-21T03:39:03;8.00;;;7.40;;
8636;SDS011;4356;49.068;8.658;2022-07-21T03:41:29;8.00;;;7.38;;
8636;SDS011;4356;49.068;8.658;2022-07-21T03:43:54;8.23;;;7.43;;
8636;SDS011;4356;49.068;8.658;2022-07-21T03:46:20;7.53;;;7.03;;
8636;SDS011;4356;49.068;8.658;2022-07-21T03:48:45;7.55;;;7.13;;
8636;SDS011;4356;49.068;8.658;2022-07-21T03:51:10;7.95;;;7.32;;
8636;SDS011;4356;49.068;8.658;2022-07-21T03:53:36;8.05;;;7.35;;
8636;SDS011;4356;49.068;8.658;2022-07-21T03:56:01;7.75;;;7.07;;
8636;SDS011;4356;49.068;8.658;2022-07-21T03:58:27;8.52;;;7.82;;
8636;SDS011;4356;49.068;8.658;2022-07-21T04:00:52;8.40;;;7.70;;
8636;SDS011;4356;49.068;8.658;2022-07-21T04:03:18;7.85;;;7.25;;
8636;SDS011;4356;49.068;8.658;2022-07-21T04:05:44;8.13;;;7.43;;
8636;SDS011;4356;49.068;8.658;2022-07-21T04:08:09;8.15;;;7.45;;
8636;SDS011;4356;49.068;8.658;2022-07-21T04:10:36;8.13;;;7.53;;
8636;SDS011;4356;49.068;8.658;2022-07-21T04:13:04;8.30;;;7.75;;
8636;SDS011;4356;49.068;8.658;2022-07-21T04:15:31;8.73;;;8.07;;
8636;SDS011;4356;49.068;8.658;2022-07-21T04:17:57;8.30;;;7.60;;
8636;SDS011;4356;49.068;8.658;2022-07-21T04:20:22;7.70;;;7.10;;
8636;SDS011;4356;49.068;8.658;2022-07-21T04:22:48;8.35;;;7.75;;
8636;SDS011;4356;49.068;8.658;2022-07-21T04:25:16;9.00;;;8.25;;
8636;SDS011;4356;49.068;8.658;2022-07-21T04:27:42;9.13;;;8.20;;
8636;SDS011;4356;49.068;8.658;2022-07-21T04:30:09;8.27;;;7.57;;
8636;SDS011;4356;49.068;8.658;2022-07-21T04:32:37;7.55;;;7.05;;
8636;SDS011;4356;49.068;8.658;2022-07-21T04:35:03;8.57;;;7.20;;
8636;SDS011;4356;49.068;8.658;2022-07-21T04:37:29;10.18;;;8.73;;
8636;SDS011;4356;49.068;8.658;2022-07-21T04:39:55;8.55;;;7.70;;
8636;SDS011;4356;49.068;8.658;2022-07-21T04:42:20;8.75;;;7.93;;
8636;SDS011;4356;49.068;8.658;2022-07-21T04:44:46;9.32;;;8.40;;
8636;SDS011;4356;49.068;8.658;2022-07-21T04:47:11;8.27;;;7.68;;
8636;SDS011;4356;49.068;8.658;2022-07-21T04:49:37;8.85;;;8.15;;
8636;SDS011;4356;49.068;8.658;2022-07-21T04:52:02;8.23;;;7.45;;
8636;SDS011;4356;49.068;8.658;2022-07-21T04:54:28;8.40;;;7.75;;
8636;SDS011;4356;49.068;8.658;2022-07-21T04:56:53;9.25;;;8.57;;
8636;SDS011;4356;49.068;8.658;2022-07-21T04:59:20;8.38;;;7.75;;
8636;SDS011;4356;49.068;8.658;2022-07-21T05:01:45;8.63;;;8.00;;
8636;SDS011;4356;49.068;8.658;2022-07-21T05:04:11;9.38;;;8.50;;
8636;SDS011;4356;49.068;8.658;2022-07-21T05:06:36;8.30;;;7.60;;
8636;SDS011;4356;49.068;8.658;2022-07-21T05:09:02;8.52;;;7.82;;
8636;SDS011;4356;49.068;8.658;2022-07-21T05:11:27;8.55;;;7.95;;
8636;SDS011;4356;49.068;8.658;2022-07-21T05:13:53;9.25;;;8.23;;
8636;SDS011;4356;49.068;8.658;2022-07-21T05:16:18;8.93;;;7.97;;
8636;SDS011;4356;49.068;8.658;2022-07-21T05:18:44;8.93;;;7.97;;
8636;SDS011;4356;49.068;8.658;2022-07-21T05:21:09;8.90;;;8.05;;
8636;SDS011;4356;49.068;8.658;2022-07-21T05:23:35;8.60;;;7.90;;
8636;SDS011;4356;49.068;8.658;2022-07-21T05:26:00;9.38;;;8.48;;
8636;SDS011;4356;49.068;8.658;2022-07-21T05:28:29;9.63;;;8.88;;
8636;SDS011;4356;49.068;8.658;2022-07-21T05:30:54;7.85;;;7.25;;
8636;SDS011;4356;49.068;8.658;2022-07-21T05:33:20;8.63;;;7.95;;
8636;SDS011;4356;49.068;8.658;2022-07-21T05:35:45;7.65;;;7.10;;
8636;SDS011;4356;49.068;8.658;2022-07-21T05:38:11;8.98;;;8.07;;
8636;SDS011;4356;49.068;8.658;2022-07-21T05:40:36;8.55;;;7.85;;
8636;SDS011;4356;49.068;8.658;2022-07-21T05:43:02;7.45;;;6.88;;
8636;SDS011;4356;49.068;8.658;2022-07-21T05:45:27;7.78;;;7.18;;
8636;SDS011;4356;49.068;8.658;2022-07-21T05:47:52;8.45;;;7.85;;
8636;SDS011;4356;49.068;8.658;2022-07-21T05:50:18;8.63;;;8.00;;
8636;SDS011;4356;49.068;8.658;2022-07-21T05:52:43;8.77;;;7.95;;
8636;SDS011;4356;49.068;8.658;2022-07-21T05:55:09;8.75;;;7.97;;
8636;SDS011;4356;49.068;8.658;2022-07-21T05:57:36;8.50;;;7.63;;
8636;SDS011;4356;49.068;8.658;2022-07-21T06:00:02;9.27;;;8.50;;
8636;SDS011;4356;49.068;8.658;2022-07-21T06:02:28;7.68;;;7.07;;
8636;SDS011;4356;49.068;8.658;2022-07-21T06:04:58;9.68;;;7.90;;
8636;SDS011;4356;49.068;8.658;2022-07-21T06:07:24;7.97;;;7.38;;
8636;SDS011;4356;49.068;8.658;2022-07-21T06:09:50;7.90;;;7.30;;
8636;SDS011;4356;49.068;8.658;2022-07-21T06:12:16;8.65;;;7.50;;
8636;SDS011;4356;49.068;8.658;2022-07-21T06:14:42;7.85;;;7.25;;
8636;SDS011;4356;49.068;8.658;2022-07-21T06:17:07;7.88;;;7.05;;
8636;SDS011;4356;49.068;8.658;2022-07-21T06:19:33;8.07;;;7.28;;
8636;SDS011;4356;49.068;8.658;2022-07-21T06:21:58;7.32;;;6.80;;
8636;SDS011;4356;49.068;8.658;2022-07-21T06:24:24;7.05;;;6.55;;
8636;SDS011;4356;49.068;8.658;2022-07-21T06:26:51;6.93;;;6.43;;
8636;SDS011;4356;49.068;8.658;2022-07-21T06:29:21;7.13;;;6.50;;
8636;SDS011;4356;49.068;8.658;2022-07-21T06:31:47;7.40;;;6.75;;
8636;SDS011;4356;49.068;8.658;2022-07-21T06:34:13;7.30;;;6.60;;
8636;SDS011;4356;49.068;8.658;2022-07-21T06:36:38;7.10;;;6.60;;
8636;SDS011;4356;49.068;8.658;2022-07-21T06:39:04;6.93;;;6.28;;
8636;SDS011;4356;49.068;8.658;2022-07-21T06:41:30;7.18;;;6.43;;
8636;SDS011;4356;49.068;8.658;2022-07-21T06:43:56;7.30;;;6.78;;
8636;SDS011;4356;49.068;8.658;2022-07-21T06:46:21;7.13;;;6.63;;
8636;SDS011;4356;49.068;8.658;2022-07-21T06:48:47;7.60;;;7.10;;
8636;SDS011;4356;49.068;8.658;2022-07-21T06:51:12;7.30;;;6.70;;
8636;SDS011;4356;49.068;8.658;2022-07-21T06:53:38;7.32;;;6.82;;
8636;SDS011;4356;49.068;8.658;2022-07-21T06:56:03;7.15;;;6.65;;
8636;SDS011;4356;49.068;8.658;2022-07-21T06:58:29;7.85;;;7.00;;
8636;SDS011;4356;49.068;8.658;2022-07-21T07:00:55;7.45;;;6.95;;
8636;SDS011;4356;49.068;8.658;2022-07-21T07:03:20;7.10;;;6.45;;
8636;SDS011;4356;49.068;8.658;2022-07-21T07:05:46;7.20;;;6.57;;
8636;SDS011;4356;49.068;8.658;2022-07-21T07:08:12;7.13;;;6.50;;
8636;SDS011;4356;49.068;8.658;2022-07-21T07:10:39;6.50;;;5.90;;
8636;SDS011;4356;49.068;8.658;2022-07-21T07:13:05;6.60;;;6.20;;
8636;SDS011;4356;49.068;8.658;2022-07-21T07:15:31;6.38;;;5.88;;
8636;SDS011;4356;49.068;8.658;2022-07-21T07:17:56;6.18;;;5.82;;
8636;SDS011;4356;49.068;8.658;2022-07-21T07:20:23;5.88;;;5.47;;
8636;SDS011;4356;49.068;8.658;2022-07-21T07:22:49;6.75;;;5.45;;
8636;SDS011;4356;49.068;8.658;2022-07-21T07:25:15;5.55;;;5.25;;
8636;SDS011;4356;49.068;8.658;2022-07-21T07:27:42;5.85;;;5.55;;
8636;SDS011;4356;49.068;8.658;2022-07-21T07:30:12;6.38;;;5.88;;
8636;SDS011;4356;49.068;8.658;2022-07-21T07:32:38;6.00;;;5.55;;
8636;SDS011;4356;49.068;8.658;2022-07-21T07:35:05;5.90;;;5.50;;
8636;SDS011;4356;49.068;8.658;2022-07-21T07:37:33;5.75;;;5.38;;
8636;SDS011;4356;49.068;8.658;2022-07-21T07:39:59;6.03;;;5.63;;
8636;SDS011;4356;49.068;8.658;2022-07-21T07:42:24;6.28;;;5.88;;
8636;SDS011;4356;49.068;8.658;2022-07-21T07:44:50;6.10;;;5.53;;
8636;SDS011;4356;49.068;8.658;2022-07-21T07:47:15;5.72;;;5.22;;
8636;SDS011;4356;49.068;8.658;2022-07-21T07:49:41;6.10;;;5.72;;
8636;SDS011;4356;49.068;8.658;2022-07-21T07:52:06;5.70;;;5.30;;
8636;SDS011;4356;49.068;8.658;2022-07-21T07:54:32;5.07;;;4.65;;
8636;SDS011;4356;49.068;8.658;2022-07-21T07:56:57;5.75;;;5.35;;
8636;SDS011;4356;49.068;8.658;2022-07-21T07:59:23;7.97;;;5.50;;
8636;SDS011;4356;49.068;8.658;2022-07-21T08:01:48;5.38;;;5.07;;
8636;SDS011;4356;49.068;8.658;2022-07-21T08:04:13;5.60;;;5.13;;
8636;SDS011;4356;49.068;8.658;2022-07-21T08:06:40;5.30;;;4.90;;
8636;SDS011;4356;49.068;8.658;2022-07-21T08:09:06;4.85;;;4.55;;
8636;SDS011;4356;49.068;8.658;2022-07-21T08:11:33;5.28;;;4.97;;
8636;SDS011;4356;49.068;8.658;2022-07-21T08:13:58;5.53;;;4.70;;
8636;SDS011;4356;49.068;8.658;2022-07-21T08:16:27;5.30;;;4.90;;
8636;SDS011;4356;49.068;8.658;2022-07-21T08:18:52;5.15;;;4.75;;
8636;SDS011;4356;49.068;8.658;2022-07-21T08:21:18;4.90;;;4.53;;
8636;SDS011;4356;49.068;8.658;2022-07-21T08:23:43;4.90;;;4.60;;
8636;SDS011;4356;49.068;8.658;2022-07-21T08:26:12;5.25;;;4.75;;
8636;SDS011;4356;49.068;8.658;2022-07-21T08:28:37;5.78;;;5.22;;
8636;SDS011;4356;49.068;8.658;2022-07-21T08:31:03;6.72;;;4.82;;
8636;SDS011;4356;49.068;8.658;2022-07-21T08:33:28;5.63;;;5.15;;
8636;SDS011;4356;49.068;8.658;2022-07-21T08:35:54;5.38;;;4.97;;
8636;SDS011;4356;49.068;8.658;2022-07-21T08:38:19;5.93;;;5.53;;
8636;SDS011;4356;49.068;8.658;2022-07-21T08:40:45;5.03;;;4.72;;
8636;SDS011;4356;49.068;8.658;2022-07-21T08:43:11;5.20;;;4.90;;
8636;SDS011;4356;49.068;8.658;2022-07-21T08:45:39;6.20;;;4.90;;
8636;SDS011;4356;49.068;8.658;2022-07-21T08:48:05;4.85;;;4.55;;
8636;SDS011;4356;49.068;8.658;2022-07-21T08:50:36;4.82;;;4.43;;
8636;SDS011;4356;49.068;8.658;2022-07-21T08:53:03;5.25;;;4.70;;
8636;SDS011;4356;49.068;8.658;2022-07-21T08:55:29;5.40;;;5.00;;
8636;SDS011;4356;49.068;8.658;2022-07-21T08:57:56;5.65;;;5.03;;
8636;SDS011;4356;49.068;8.658;2022-07-21T09:00:22;5.60;;;5.05;;
8636;SDS011;4356;49.068;8.658;2022-07-21T09:02:47;5.13;;;4.80;;
8636;SDS011;4356;49.068;8.658;2022-07-21T09:05:13;5.55;;;5.15;;
8636;SDS011;4356;49.068;8.658;2022-07-21T09:07:48;5.45;;;5.05;;
8636;SDS011;4356;49.068;8.658;2022-07-21T09:10:16;5.15;;;4.75;;
8636;SDS011;4356;49.068;8.658;2022-07-21T09:12:48;4.95;;;4.65;;
8636;SDS011;4356;49.068;8.658;2022-07-21T09:15:17;4.90;;;4.60;;
8636;SDS011;4356;49.068;8.658;2022-07-21T09:17:44;4.72;;;4.38;;
8636;SDS011;4356;49.068;8.658;2022-07-21T09:20:20;4.50;;;4.20;;
8636;SDS011;4356;49.068;8.658;2022-07-21T09:23:03;4.50;;;4.20;;
8636;SDS011;4356;49.068;8.658;2022-07-21T09:25:35;5.07;;;4.68;;
8636;SDS011;4356;49.068;8.658;2022-07-21T09:28:07;5.53;;;5.07;;
8636;SDS011;4356;49.068;8.658;2022-07-21T09:30:49;5.38;;;4.97;;
8636;SDS011;4356;49.068;8.658;2022-07-21T09:36:19;5.15;;;4.75;;
8636;SDS011;4356;49.068;8.658;2022-07-21T09:38:42;5.45;;;5.03;;
8636;SDS011;4356;49.068;8.658;2022-07-21T09:41:09;5.30;;;4.90;;
8636;SDS011;4356;49.068;8.658;2022-07-21T09:43:37;5.97;;;4.70;;
8636;SDS011;4356;49.068;8.658;2022-07-21T09:46:14;4.78;;;4.47;;
8636;SDS011;4356;49.068;8.658;2022-07-21T09:48:45;5.38;;;4.97;;
8636;SDS011;4356;49.068;8.658;2022-07-21T09:53:56;5.35;;;4.85;;
8636;SDS011;4356;49.068;8.658;2022-07-21T09:56:22;6.13;;;5.53;;
8636;SDS011;4356;49.068;8.658;2022-07-21T09:58:49;4.97;;;4.68;;
8636;SDS011;4356;49.068;8.658;2022-07-21T10:01:17;5.18;;;4.88;;
8636;SDS011;4356;49.068;8.658;2022-07-21T10:03:43;5.10;;;4.60;;
8636;SDS011;4356;49.068;8.658;2022-07-21T10:06:10;5.10;;;4.70;;
8636;SDS011;4356;49.068;8.658;2022-07-21T10:08:36;5.28;;;4.88;;
8636;SDS011;4356;49.068;8.658;2022-07-21T10:11:03;4.10;;;3.80;;
8636;SDS011;4356;49.068;8.658;2022-07-21T10:13:29;7.20;;;4.60;;
8636;SDS011;4356;49.068;8.658;2022-07-21T10:15:55;4.75;;;4.45;;
8636;SDS011;4356;49.068;8.658;2022-07-21T10:18:24;4.47;;;4.18;;
8636;SDS011;4356;49.068;8.658;2022-07-21T10:20:56;4.55;;;4.25;;
8636;SDS011;4356;49.068;8.658;2022-07-21T10:23:48;3.97;;;3.78;;
8636;SDS011;4356;49.068;8.658;2022-07-21T10:26:15;4.05;;;3.78;;
8636;SDS011;4356;49.068;8.658;2022-07-21T10:28:40;3.50;;;3.22;;
8636;SDS011;4356;49.068;8.658;2022-07-21T10:31:12;4.38;;;4.00;;
8636;SDS011;4356;49.068;8.658;2022-07-21T10:36:38;3.95;;;3.75;;
8636;SDS011;4356;49.068;8.658;2022-07-21T10:41:37;4.13;;;3.67;;
8636;SDS011;4356;49.068;8.658;2022-07-21T10:44:03;4.03;;;3.08;;
8636;SDS011;4356;49.068;8.658;2022-07-21T10:47:04;3.45;;;3.25;;
8636;SDS011;4356;49.068;8.658;2022-07-21T10:49:52;3.90;;;3.60;;
8636;SDS011;4356;49.068;8.658;2022-07-21T10:57:35;3.58;;;3.38;;
8636;SDS011;4356;49.068;8.658;2022-07-21T11:02:54;4.28;;;4.00;;
8636;SDS011;4356;49.068;8.658;2022-07-21T11:05:22;3.45;;;3.25;;
8636;SDS011;4356;49.068;8.658;2022-07-21T11:10:37;4.25;;;3.95;;
8636;SDS011;4356;49.068;8.658;2022-07-21T11:13:04;3.95;;;3.17;;
8636;SDS011;4356;49.068;8.658;2022-07-21T11:15:43;3.55;;;3.35;;
8636;SDS011;4356;49.068;8.658;2022-07-21T11:18:18;3.53;;;3.33;;
8636;SDS011;4356;49.068;8.658;2022-07-21T11:26:14;4.22;;;3.67;;
8636;SDS011;4356;49.068;8.658;2022-07-21T11:28:42;3.28;;;2.75;;
8636;SDS011;4356;49.068;8.658;2022-07-21T11:31:13;3.28;;;3.08;;
8636;SDS011;4356;49.068;8.658;2022-07-21T11:33:39;3.58;;;3.38;;
8636;SDS011;4356;49.068;8.658;2022-07-21T11:36:07;4.20;;;3.40;;
8636;SDS011;4356;49.068;8.658;2022-07-21T11:38:33;3.45;;;3.22;;
8636;SDS011;4356;49.068;8.658;2022-07-21T11:41:12;3.30;;;3.15;;
8636;SDS011;4356;49.068;8.658;2022-07-21T11:43:44;3.70;;;3.40;;
8636;SDS011;4356;49.068;8.658;2022-07-21T11:46:12;3.55;;;3.35;;
8636;SDS011;4356;49.068;8.658;2022-07-21T11:48:38;3.50;;;3.30;;
8636;SDS011;4356;49.068;8.658;2022-07-21T11:51:06;3.00;;;2.90;;
8636;SDS011;4356;49.068;8.658;2022-07-21T11:53:32;3.33;;;3.22;;
8636;SDS011;4356;49.068;8.658;2022-07-21T11:55:58;3.25;;;3.15;;
8636;SDS011;4356;49.068;8.658;2022-07-21T11:58:24;3.50;;;3.30;;
8636;SDS011;4356;49.068;8.658;2022-07-21T12:01:02;3.10;;;2.90;;
8636;SDS011;4356;49.068;8.658;2022-07-21T12:03:29;3.42;;;3.30;;
8636;SDS011;4356;49.068;8.658;2022-07-21T12:05:55;3.28;;;3.08;;
8636;SDS011;4356;49.068;8.658;2022-07-21T12:08:21;2.85;;;2.75;;
8636;SDS011;4356;49.068;8.658;2022-07-21T12:10:47;3.10;;;2.90;;
8636;SDS011;4356;49.068;8.658;2022-07-21T12:13:13;3.40;;;3.20;;
8636;SDS011;4356;49.068;8.658;2022-07-21T12:15:38;3.15;;;2.95;;
8636;SDS011;4356;49.068;8.658;2022-07-21T12:18:07;3.00;;;2.80;;
8636;SDS011;4356;49.068;8.658;2022-07-21T12:20:39;2.90;;;2.70;;
8636;SDS011;4356;49.068;8.658;2022-07-21T12:23:22;1.75;;;1.65;;
8636;SDS011;4356;49.068;8.658;2022-07-21T12:25:50;3.13;;;2.92;;
8636;SDS011;4356;49.068;8.658;2022-07-21T12:28:16;3.05;;;2.70;;
8636;SDS011;4356;49.068;8.658;2022-07-21T12:30:43;2.85;;;2.65;;
8636;SDS011;4356;49.068;8.658;2022-07-21T12:33:15;3.10;;;2.80;;
8636;SDS011;4356;49.068;8.658;2022-07-21T12:35:43;2.53;;;2.42;;
8636;SDS011;4356;49.068;8.658;2022-07-21T12:38:12;6.18;;;3.38;;
8636;SDS011;4356;49.068;8.658;2022-07-21T12:40:46;4.20;;;3.10;;
8636;SDS011;4356;49.068;8.658;2022-07-21T12:43:16;3.25;;;2.95;;
8636;SDS011;4356;49.068;8.658;2022-07-21T12:46:00;3.40;;;3.20;;
8636;SDS011;4356;49.068;8.658;2022-07-21T12:48:46;3.30;;;3.10;;
8636;SDS011;4356;49.068;8.658;2022-07-21T12:51:19;3.28;;;3.08;;
8636;SDS011;4356;49.068;8.658;2022-07-21T12:53:53;4.00;;;3.70;;
8636;SDS011;4356;49.068;8.658;2022-07-21T12:56:23;3.50;;;3.30;;
8636;SDS011;4356;49.068;8.658;2022-07-21T12:58:51;3.40;;;3.10;;
8636;SDS011;4356;49.068;8.658;2022-07-21T13:01:18;5.93;;;3.00;;
8636;SDS011;4356;49.068;8.658;2022-07-21T13:03:44;3.28;;;3.08;;
8636;SDS011;4356;49.068;8.658;2022-07-21T13:06:10;4.07;;;3.38;;
8636;SDS011;4356;49.068;8.658;2022-07-21T13:08:39;3.10;;;3.00;;
8636;SDS011;4356;49.068;8.658;2022-07-21T13:11:10;3.38;;;3.08;;
8636;SDS011;4356;49.068;8.658;2022-07-21T13:13:37;2.78;;;2.67;;
8636;SDS011;4356;49.068;8.658;2022-07-21T13:16:04;3.28;;;3.10;;
8636;SDS011;4356;49.068;8.658;2022-07-21T13:18:30;4.35;;;3.40;;
8636;SDS011;4356;49.068;8.658;2022-07-21T13:20:55;3.47;;;3.28;;
8636;SDS011;4356;49.068;8.658;2022-07-21T13:23:21;2.60;;;2.40;;
8636;SDS011;4356;49.068;8.658;2022-07-21T13:25:47;2.72;;;2.63;;
8636;SDS011;4356;49.068;8.658;2022-07-21T13:28:14;3.63;;;3.33;;
8636;SDS011;4356;49.068;8.658;2022-07-21T13:30:40;2.83;;;2.60;;
8636;SDS011;4356;49.068;8.658;2022-07-21T13:33:05;3.08;;;2.97;;
8636;SDS011;4356;49.068;8.658;2022-07-21T13:35:31;3.17;;;2.97;;
8636;SDS011;4356;49.068;8.658;2022-07-21T13:37:57;3.58;;;3.33;;
8636;SDS011;4356;49.068;8.658;2022-07-21T13:40:24;3.20;;;3.00;;
8636;SDS011;4356;49.068;8.658;2022-07-21T13:42:51;3.58;;;3.38;;
8636;SDS011;4356;49.068;8.658;2022-07-21T13:45:16;3.70;;;3.40;;
8636;SDS011;4356;49.068;8.658;2022-07-21T13:47:42;4.20;;;4.00;;
8636;SDS011;4356;49.068;8.658;2022-07-21T13:50:08;3.20;;;2.90;;
8636;SDS011;4356;49.068;8.658;2022-07-21T13:52:34;3.40;;;3.20;;
8636;SDS011;4356;49.068;8.658;2022-07-21T13:55:00;3.58;;;3.28;;
8636;SDS011;4356;49.068;8.658;2022-07-21T13:57:27;3.35;;;3.15;;
8636;SDS011;4356;49.068;8.658;2022-07-21T13:59:52;3.45;;;3.15;;
8636;SDS011;4356;49.068;8.658;2022-07-21T14:02:18;3.50;;;3.30;;
8636;SDS011;4356;49.068;8.658;2022-07-21T14:04:43;3.75;;;3.55;;
8636;SDS011;4356;49.068;8.658;2022-07-21T14:07:09;5.07;;;3.72;;
8636;SDS011;4356;49.068;8.658;2022-07-21T14:09:39;3.45;;;3.15;;
8636;SDS011;4356;49.068;8.658;2022-07-21T14:12:06;3.72;;;3.42;;
8636;SDS011;4356;49.068;8.658;2022-07-21T14:14:31;3.50;;;3.30;;
8636;SDS011;4356;49.068;8.658;2022-07-21T14:16:57;3.08;;;2.97;;
8636;SDS011;4356;49.068;8.658;2022-07-21T14:19:23;3.08;;;2.88;;
8636;SDS011;4356;49.068;8.658;2022-07-21T14:21:49;4.40;;;3.13;;
8636;SDS011;4356;49.068;8.658;2022-07-21T14:24:14;3.92;;;3.63;;
8636;SDS011;4356;49.068;8.658;2022-07-21T14:26:59;3.28;;;3.17;;
8636;SDS011;4356;49.068;8.658;2022-07-21T14:29:25;3.17;;;3.03;;
8636;SDS011;4356;49.068;8.658;2022-07-21T14:31:51;3.40;;;3.30;;
8636;SDS011;4356;49.068;8.658;2022-07-21T14:34:16;4.10;;;3.80;;
8636;SDS011;4356;49.068;8.658;2022-07-21T14:36:42;3.78;;;3.47;;
8636;SDS011;4356;49.068;8.658;2022-07-21T14:39:07;3.42;;;3.33;;
8636;SDS011;4356;49.068;8.658;2022-07-21T14:41:33;5.18;;;3.45;;
8636;SDS011;4356;49.068;8.658;2022-07-21T14:43:59;3.28;;;3.08;;
8636;SDS011;4356;49.068;8.658;2022-07-21T14:46:24;3.53;;;3.30;;
8636;SDS011;4356;49.068;8.658;2022-07-21T14:48:50;3.25;;;3.08;;
8636;SDS011;4356;49.068;8.658;2022-07-21T14:51:15;3.08;;;2.88;;
8636;SDS011;4356;49.068;8.658;2022-07-21T14:53:40;4.15;;;3.63;;
8636;SDS011;4356;49.068;8.658;2022-07-21T14:56:07;3.08;;;2.97;;
8636;SDS011;4356;49.068;8.658;2022-07-21T14:58:32;3.47;;;3.28;;
8636;SDS011;4356;49.068;8.658;2022-07-21T15:00:58;3.10;;;2.75;;
8636;SDS011;4356;49.068;8.658;2022-07-21T15:03:23;3.50;;;3.25;;
8636;SDS011;4356;49.068;8.658;2022-07-21T15:05:50;3.45;;;3.30;;
8636;SDS011;4356;49.068;8.658;2022-07-21T15:08:18;3.50;;;3.30;;
8636;SDS011;4356;49.068;8.658;2022-07-21T15:10:44;3.55;;;3.35;;
8636;SDS011;4356;49.068;8.658;2022-07-21T15:13:11;3.63;;;3.42;;
8636;SDS011;4356;49.068;8.658;2022-07-21T15:15:37;4.03;;;3.30;;
8636;SDS011;4356;49.068;8.658;2022-07-21T15:18:05;4.07;;;3.50;;
8636;SDS011;4356;49.068;8.658;2022-07-21T15:20:31;3.50;;;3.30;;
8636;SDS011;4356;49.068;8.658;2022-07-21T15:22:57;4.03;;;3.50;;
8636;SDS011;4356;49.068;8.658;2022-07-21T15:25:23;6.30;;;3.28;;
8636;SDS011;4356;49.068;8.658;2022-07-21T15:27:48;3.30;;;3.10;;
8636;SDS011;4356;49.068;8.658;2022-07-21T15:30:14;3.75;;;3.55;;
8636;SDS011;4356;49.068;8.658;2022-07-21T15:32:39;2.95;;;2.75;;
8636;SDS011;4356;49.068;8.658;2022-07-21T15:35:05;4.10;;;3.30;;
8636;SDS011;4356;49.068;8.658;2022-07-21T15:37:32;3.40;;;3.20;;
8636;SDS011;4356;49.068;8.658;2022-07-21T15:39:57;3.38;;;3.20;;
8636;SDS011;4356;49.068;8.658;2022-07-21T15:42:23;3.40;;;3.20;;
8636;SDS011;4356;49.068;8.658;2022-07-21T15:44:49;3.03;;;2.80;;